sensor_id;sensor_type;location;lat;lon;timestamp;P1;durP1;ratioP1;P2;durP2;ratioP2
84138;SDS011;74250;51.528;6.748;2024-03-25T00:02:10;42.80;;;19.83;;
84138;SDS011;74250;51.528;6.748;2024-03-25T00:04:35;42.50;;;19.88;;
84138;SDS011;74250;51.528;6.748;2024-03-25T00:07:01;38.95;;;19.10;;
84138;SDS011;74250;51.528;6.748;2024-03-25T00:09:27;29.48;;;19.42;;
84138;SDS011;74250;51.528;6.748;2024-03-25T00:11:53;35.50;;;15.68;;
84138;SDS011;74250;51.528;6.748;2024-03-25T00:14:21;36.75;;;18.52;;
84138;SDS011;74250;51.528;6.748;2024-03-25T00:16:47;34.95;;;18.08;;
84138;SDS011;74250;51.528;6.748;2024-03-25T00:19:12;38.58;;;19.30;;
84138;SDS011;74250;51.528;6.748;2024-03-25T00:21:37;47.03;;;24.00;;
84138;SDS011;74250;51.528;6.748;2024-03-25T00:24:03;43.88;;;23.45;;
84138;SDS011;74250;51.528;6.748;2024-03-25T00:26:28;58.92;;;27.20;;
84138;SDS011;74250;51.528;6.748;2024-03-25T00:28:54;49.75;;;26.15;;
84138;SDS011;74250;51.528;6.748;2024-03-25T00:31:19;49.25;;;25.67;;
84138;SDS011;74250;51.528;6.748;2024-03-25T00:33:44;51.00;;;28.02;;
84138;SDS011;74250;51.528;6.748;2024-03-25T00:36:10;41.13;;;26.48;;
84138;SDS011;74250;51.528;6.748;2024-03-25T00:38:35;56.40;;;29.88;;
84138;SDS011;74250;51.528;6.748;2024-03-25T00:41:00;55.75;;;32.15;;
84138;SDS011;74250;51.528;6.748;2024-03-25T00:43:26;54.00;;;28.35;;
84138;SDS011;74250;51.528;6.748;2024-03-25T00:45:51;51.97;;;25.67;;
84138;SDS011;74250;51.528;6.748;2024-03-25T00:48:16;49.10;;;23.95;;
84138;SDS011;74250;51.528;6.748;2024-03-25T00:50:42;48.30;;;22.02;;
84138;SDS011;74250;51.528;6.748;2024-03-25T00:53:07;43.83;;;21.20;;
84138;SDS011;74250;51.528;6.748;2024-03-25T00:55:33;36.78;;;16.70;;
84138;SDS011;74250;51.528;6.748;2024-03-25T00:57:58;36.20;;;16.17;;
84138;SDS011;74250;51.528;6.748;2024-03-25T01:00:24;36.10;;;14.55;;
84138;SDS011;74250;51.528;6.748;2024-03-25T01:02:50;26.52;;;11.98;;
84138;SDS011;74250;51.528;6.748;2024-03-25T01:05:15;23.70;;;9.43;;
84138;SDS011;74250;51.528;6.748;2024-03-25T01:07:41;24.35;;;8.77;;
84138;SDS011;74250;51.528;6.748;2024-03-25T01:10:06;23.60;;;10.32;;
84138;SDS011;74250;51.528;6.748;2024-03-25T01:12:32;21.77;;;10.07;;
84138;SDS011;74250;51.528;6.748;2024-03-25T01:14:57;17.75;;;5.68;;
84138;SDS011;74250;51.528;6.748;2024-03-25T01:17:23;24.75;;;7.28;;
84138;SDS011;74250;51.528;6.748;2024-03-25T01:19:48;20.77;;;4.80;;
84138;SDS011;74250;51.528;6.748;2024-03-25T01:22:13;21.77;;;6.20;;
84138;SDS011;74250;51.528;6.748;2024-03-25T01:24:39;21.40;;;4.18;;
84138;SDS011;74250;51.528;6.748;2024-03-25T01:27:05;14.48;;;6.03;;
84138;SDS011;74250;51.528;6.748;2024-03-25T01:29:30;18.20;;;4.22;;
84138;SDS011;74250;51.528;6.748;2024-03-25T01:31:55;18.90;;;5.70;;
84138;SDS011;74250;51.528;6.748;2024-03-25T01:39:13;16.80;;;3.57;;
84138;SDS011;74250;51.528;6.748;2024-03-25T01:41:38;12.23;;;3.35;;
84138;SDS011;74250;51.528;6.748;2024-03-25T01:44:04;17.58;;;3.28;;
84138;SDS011;74250;51.528;6.748;2024-03-25T01:46:30;15.80;;;3.92;;
84138;SDS011;74250;51.528;6.748;2024-03-25T01:48:55;22.10;;;4.30;;
84138;SDS011;74250;51.528;6.748;2024-03-25T01:51:24;19.20;;;4.07;;
84138;SDS011;74250;51.528;6.748;2024-03-25T01:53:51;16.77;;;4.57;;
84138;SDS011;74250;51.528;6.748;2024-03-25T01:56:17;14.88;;;3.08;;
84138;SDS011;74250;51.528;6.748;2024-03-25T01:58:43;24.27;;;2.75;;
84138;SDS011;74250;51.528;6.748;2024-03-25T02:01:09;16.27;;;2.67;;
84138;SDS011;74250;51.528;6.748;2024-03-25T02:03:38;11.27;;;2.50;;
84138;SDS011;74250;51.528;6.748;2024-03-25T02:06:06;17.33;;;4.18;;
84138;SDS011;74250;51.528;6.748;2024-03-25T02:08:33;24.63;;;5.70;;
84138;SDS011;74250;51.528;6.748;2024-03-25T02:10:59;13.55;;;2.70;;
84138;SDS011;74250;51.528;6.748;2024-03-25T02:13:24;18.38;;;3.05;;
84138;SDS011;74250;51.528;6.748;2024-03-25T02:15:50;15.65;;;2.35;;
84138;SDS011;74250;51.528;6.748;2024-03-25T02:18:19;15.40;;;2.20;;
84138;SDS011;74250;51.528;6.748;2024-03-25T02:20:45;15.48;;;2.50;;
84138;SDS011;74250;51.528;6.748;2024-03-25T02:23:11;16.60;;;2.65;;
84138;SDS011;74250;51.528;6.748;2024-03-25T02:25:37;19.15;;;2.60;;
84138;SDS011;74250;51.528;6.748;2024-03-25T02:28:03;17.80;;;3.00;;
84138;SDS011;74250;51.528;6.748;2024-03-25T02:30:28;11.95;;;2.33;;
84138;SDS011;74250;51.528;6.748;2024-03-25T02:32:54;12.05;;;2.72;;
84138;SDS011;74250;51.528;6.748;2024-03-25T02:35:19;17.77;;;3.70;;
84138;SDS011;74250;51.528;6.748;2024-03-25T02:37:47;15.73;;;4.30;;
84138;SDS011;74250;51.528;6.748;2024-03-25T02:40:12;14.50;;;2.58;;
84138;SDS011;74250;51.528;6.748;2024-03-25T02:42:38;18.95;;;3.72;;
84138;SDS011;74250;51.528;6.748;2024-03-25T02:45:05;15.95;;;4.00;;
84138;SDS011;74250;51.528;6.748;2024-03-25T02:47:30;14.77;;;2.38;;
84138;SDS011;74250;51.528;6.748;2024-03-25T02:49:56;19.42;;;4.38;;
84138;SDS011;74250;51.528;6.748;2024-03-25T02:52:24;13.40;;;3.35;;
84138;SDS011;74250;51.528;6.748;2024-03-25T02:54:49;16.08;;;2.33;;
84138;SDS011;74250;51.528;6.748;2024-03-25T02:57:15;14.27;;;2.88;;
84138;SDS011;74250;51.528;6.748;2024-03-25T02:59:41;14.63;;;2.80;;
84138;SDS011;74250;51.528;6.748;2024-03-25T03:02:06;13.63;;;2.45;;
84138;SDS011;74250;51.528;6.748;2024-03-25T03:04:32;21.95;;;1.98;;
84138;SDS011;74250;51.528;6.748;2024-03-25T03:06:58;17.92;;;3.08;;
84138;SDS011;74250;51.528;6.748;2024-03-25T03:09:23;17.10;;;2.63;;
84138;SDS011;74250;51.528;6.748;2024-03-25T03:11:48;13.30;;;2.75;;
84138;SDS011;74250;51.528;6.748;2024-03-25T03:14:14;14.25;;;2.13;;
84138;SDS011;74250;51.528;6.748;2024-03-25T03:16:39;15.98;;;2.17;;
84138;SDS011;74250;51.528;6.748;2024-03-25T03:19:04;13.27;;;2.58;;
84138;SDS011;74250;51.528;6.748;2024-03-25T03:21:30;13.48;;;2.95;;
84138;SDS011;74250;51.528;6.748;2024-03-25T03:23:55;14.13;;;2.35;;
84138;SDS011;74250;51.528;6.748;2024-03-25T03:26:21;14.40;;;2.60;;
84138;SDS011;74250;51.528;6.748;2024-03-25T03:28:46;15.70;;;2.38;;
84138;SDS011;74250;51.528;6.748;2024-03-25T03:31:11;16.85;;;3.80;;
84138;SDS011;74250;51.528;6.748;2024-03-25T03:33:37;19.20;;;3.22;;
84138;SDS011;74250;51.528;6.748;2024-03-25T03:36:02;20.98;;;2.28;;
84138;SDS011;74250;51.528;6.748;2024-03-25T03:38:28;17.20;;;2.45;;
84138;SDS011;74250;51.528;6.748;2024-03-25T03:41:00;19.17;;;3.63;;
84138;SDS011;74250;51.528;6.748;2024-03-25T03:43:26;17.05;;;2.55;;
84138;SDS011;74250;51.528;6.748;2024-03-25T03:45:52;18.70;;;4.18;;
84138;SDS011;74250;51.528;6.748;2024-03-25T03:48:17;13.38;;;3.10;;
84138;SDS011;74250;51.528;6.748;2024-03-25T03:50:42;20.58;;;3.13;;
84138;SDS011;74250;51.528;6.748;2024-03-25T03:53:08;16.73;;;3.63;;
84138;SDS011;74250;51.528;6.748;2024-03-25T03:55:33;19.13;;;6.18;;
84138;SDS011;74250;51.528;6.748;2024-03-25T03:57:59;17.80;;;4.07;;
84138;SDS011;74250;51.528;6.748;2024-03-25T04:00:24;10.75;;;2.38;;
84138;SDS011;74250;51.528;6.748;2024-03-25T04:02:49;12.57;;;2.83;;
84138;SDS011;74250;51.528;6.748;2024-03-25T04:05:15;13.25;;;3.28;;
84138;SDS011;74250;51.528;6.748;2024-03-25T04:07:40;14.52;;;2.80;;
84138;SDS011;74250;51.528;6.748;2024-03-25T04:10:05;11.88;;;2.83;;
84138;SDS011;74250;51.528;6.748;2024-03-25T04:12:31;13.82;;;2.50;;
84138;SDS011;74250;51.528;6.748;2024-03-25T04:14:57;14.70;;;3.58;;
84138;SDS011;74250;51.528;6.748;2024-03-25T04:17:22;17.40;;;3.40;;
84138;SDS011;74250;51.528;6.748;2024-03-25T04:19:51;15.75;;;3.40;;
84138;SDS011;74250;51.528;6.748;2024-03-25T04:22:16;17.92;;;3.15;;
84138;SDS011;74250;51.528;6.748;2024-03-25T04:24:42;11.65;;;3.42;;
84138;SDS011;74250;51.528;6.748;2024-03-25T04:27:08;21.23;;;4.88;;
84138;SDS011;74250;51.528;6.748;2024-03-25T04:29:33;19.58;;;2.88;;
84138;SDS011;74250;51.528;6.748;2024-03-25T04:32:00;12.75;;;2.67;;
84138;SDS011;74250;51.528;6.748;2024-03-25T04:34:27;18.30;;;3.63;;
84138;SDS011;74250;51.528;6.748;2024-03-25T04:36:52;18.80;;;2.67;;
84138;SDS011;74250;51.528;6.748;2024-03-25T04:39:18;8.27;;;1.98;;
84138;SDS011;74250;51.528;6.748;2024-03-25T04:41:45;14.43;;;3.03;;
84138;SDS011;74250;51.528;6.748;2024-03-25T04:44:11;15.55;;;2.95;;
84138;SDS011;74250;51.528;6.748;2024-03-25T04:46:36;16.63;;;3.15;;
84138;SDS011;74250;51.528;6.748;2024-03-25T04:49:03;17.63;;;6.72;;
84138;SDS011;74250;51.528;6.748;2024-03-25T04:51:28;10.45;;;2.55;;
84138;SDS011;74250;51.528;6.748;2024-03-25T04:53:53;12.93;;;3.42;;
84138;SDS011;74250;51.528;6.748;2024-03-25T04:56:19;15.98;;;3.20;;
84138;SDS011;74250;51.528;6.748;2024-03-25T04:58:45;12.77;;;2.40;;
84138;SDS011;74250;51.528;6.748;2024-03-25T05:01:10;10.30;;;2.50;;
84138;SDS011;74250;51.528;6.748;2024-03-25T05:03:35;17.63;;;3.72;;
84138;SDS011;74250;51.528;6.748;2024-03-25T05:06:01;17.88;;;3.47;;
84138;SDS011;74250;51.528;6.748;2024-03-25T05:08:26;16.08;;;3.70;;
84138;SDS011;74250;51.528;6.748;2024-03-25T05:10:51;20.02;;;4.05;;
84138;SDS011;74250;51.528;6.748;2024-03-25T05:13:17;18.73;;;3.70;;
84138;SDS011;74250;51.528;6.748;2024-03-25T05:15:52;17.67;;;3.08;;
84138;SDS011;74250;51.528;6.748;2024-03-25T05:18:18;13.25;;;3.95;;
84138;SDS011;74250;51.528;6.748;2024-03-25T05:20:43;17.77;;;4.25;;
84138;SDS011;74250;51.528;6.748;2024-03-25T05:23:09;15.95;;;3.28;;
84138;SDS011;74250;51.528;6.748;2024-03-25T05:25:34;21.17;;;6.47;;
84138;SDS011;74250;51.528;6.748;2024-03-25T05:28:00;15.25;;;4.07;;
84138;SDS011;74250;51.528;6.748;2024-03-25T05:30:26;15.02;;;3.78;;
84138;SDS011;74250;51.528;6.748;2024-03-25T05:32:51;11.18;;;4.25;;
84138;SDS011;74250;51.528;6.748;2024-03-25T05:35:16;13.88;;;3.22;;
84138;SDS011;74250;51.528;6.748;2024-03-25T05:37:42;16.17;;;3.50;;
84138;SDS011;74250;51.528;6.748;2024-03-25T05:40:08;11.57;;;3.78;;
84138;SDS011;74250;51.528;6.748;2024-03-25T05:42:36;17.50;;;4.10;;
84138;SDS011;74250;51.528;6.748;2024-03-25T05:45:03;16.85;;;4.63;;
84138;SDS011;74250;51.528;6.748;2024-03-25T05:47:29;18.75;;;5.22;;
84138;SDS011;74250;51.528;6.748;2024-03-25T05:49:55;23.13;;;5.00;;
84138;SDS011;74250;51.528;6.748;2024-03-25T05:52:20;17.77;;;4.45;;
84138;SDS011;74250;51.528;6.748;2024-03-25T05:54:45;18.13;;;5.88;;
84138;SDS011;74250;51.528;6.748;2024-03-25T05:57:11;24.48;;;5.20;;
84138;SDS011;74250;51.528;6.748;2024-03-25T05:59:36;12.02;;;4.10;;
84138;SDS011;74250;51.528;6.748;2024-03-25T06:02:02;13.52;;;3.35;;
84138;SDS011;74250;51.528;6.748;2024-03-25T06:04:28;14.48;;;5.72;;
84138;SDS011;74250;51.528;6.748;2024-03-25T06:06:53;15.40;;;3.40;;
84138;SDS011;74250;51.528;6.748;2024-03-25T06:09:18;16.00;;;6.05;;
84138;SDS011;74250;51.528;6.748;2024-03-25T06:11:44;18.33;;;4.20;;
84138;SDS011;74250;51.528;6.748;2024-03-25T06:14:09;14.65;;;3.70;;
84138;SDS011;74250;51.528;6.748;2024-03-25T06:16:34;21.67;;;4.85;;
84138;SDS011;74250;51.528;6.748;2024-03-25T06:19:00;14.90;;;4.32;;
84138;SDS011;74250;51.528;6.748;2024-03-25T06:21:25;12.13;;;4.07;;
84138;SDS011;74250;51.528;6.748;2024-03-25T06:23:50;18.30;;;4.03;;
84138;SDS011;74250;51.528;6.748;2024-03-25T06:26:16;14.48;;;5.22;;
84138;SDS011;74250;51.528;6.748;2024-03-25T06:28:41;15.10;;;4.03;;
84138;SDS011;74250;51.528;6.748;2024-03-25T06:31:07;17.08;;;4.43;;
84138;SDS011;74250;51.528;6.748;2024-03-25T06:33:51;12.75;;;3.22;;
84138;SDS011;74250;51.528;6.748;2024-03-25T06:36:35;17.80;;;4.50;;
84138;SDS011;74250;51.528;6.748;2024-03-25T06:39:01;13.82;;;3.75;;
84138;SDS011;74250;51.528;6.748;2024-03-25T06:41:27;14.60;;;5.60;;
84138;SDS011;74250;51.528;6.748;2024-03-25T06:43:53;16.40;;;5.35;;
84138;SDS011;74250;51.528;6.748;2024-03-25T06:46:18;13.95;;;4.90;;
84138;SDS011;74250;51.528;6.748;2024-03-25T06:48:43;17.90;;;7.15;;
84138;SDS011;74250;51.528;6.748;2024-03-25T06:51:09;15.70;;;5.68;;
84138;SDS011;74250;51.528;6.748;2024-03-25T06:53:34;17.88;;;4.32;;
84138;SDS011;74250;51.528;6.748;2024-03-25T06:56:00;19.23;;;4.45;;
84138;SDS011;74250;51.528;6.748;2024-03-25T06:58:26;16.85;;;4.25;;
84138;SDS011;74250;51.528;6.748;2024-03-25T07:00:53;17.35;;;4.72;;
84138;SDS011;74250;51.528;6.748;2024-03-25T07:03:19;11.65;;;4.25;;
84138;SDS011;74250;51.528;6.748;2024-03-25T07:05:45;14.07;;;4.13;;
84138;SDS011;74250;51.528;6.748;2024-03-25T07:08:17;15.88;;;4.15;;
84138;SDS011;74250;51.528;6.748;2024-03-25T07:10:44;22.23;;;5.82;;
84138;SDS011;74250;51.528;6.748;2024-03-25T07:13:10;17.88;;;4.90;;
84138;SDS011;74250;51.528;6.748;2024-03-25T07:15:36;13.73;;;5.40;;
84138;SDS011;74250;51.528;6.748;2024-03-25T07:18:02;18.10;;;4.13;;
84138;SDS011;74250;51.528;6.748;2024-03-25T07:20:30;18.10;;;4.50;;
84138;SDS011;74250;51.528;6.748;2024-03-25T07:22:56;15.93;;;4.57;;
84138;SDS011;74250;51.528;6.748;2024-03-25T07:25:22;14.32;;;6.88;;
84138;SDS011;74250;51.528;6.748;2024-03-25T07:27:48;18.50;;;4.60;;
84138;SDS011;74250;51.528;6.748;2024-03-25T07:30:16;22.50;;;5.05;;
84138;SDS011;74250;51.528;6.748;2024-03-25T07:32:41;21.70;;;4.32;;
84138;SDS011;74250;51.528;6.748;2024-03-25T07:35:06;13.30;;;4.15;;
84138;SDS011;74250;51.528;6.748;2024-03-25T07:37:34;13.30;;;4.88;;
84138;SDS011;74250;51.528;6.748;2024-03-25T07:39:59;18.17;;;5.95;;
84138;SDS011;74250;51.528;6.748;2024-03-25T07:42:25;14.27;;;5.60;;
84138;SDS011;74250;51.528;6.748;2024-03-25T07:44:50;17.10;;;4.07;;
84138;SDS011;74250;51.528;6.748;2024-03-25T07:47:16;15.80;;;3.95;;
84138;SDS011;74250;51.528;6.748;2024-03-25T07:49:41;13.32;;;4.45;;
84138;SDS011;74250;51.528;6.748;2024-03-25T07:52:07;17.52;;;4.72;;
84138;SDS011;74250;51.528;6.748;2024-03-25T07:54:33;19.70;;;6.45;;
84138;SDS011;74250;51.528;6.748;2024-03-25T07:56:58;18.98;;;5.47;;
84138;SDS011;74250;51.528;6.748;2024-03-25T07:59:24;14.85;;;3.95;;
84138;SDS011;74250;51.528;6.748;2024-03-25T08:01:49;15.13;;;4.07;;
84138;SDS011;74250;51.528;6.748;2024-03-25T08:04:15;12.57;;;3.17;;
84138;SDS011;74250;51.528;6.748;2024-03-25T08:06:40;15.60;;;5.40;;
84138;SDS011;74250;51.528;6.748;2024-03-25T08:09:06;17.55;;;5.20;;
84138;SDS011;74250;51.528;6.748;2024-03-25T08:11:31;16.83;;;5.18;;
84138;SDS011;74250;51.528;6.748;2024-03-25T08:13:57;15.60;;;3.17;;
84138;SDS011;74250;51.528;6.748;2024-03-25T08:16:23;17.38;;;3.38;;
84138;SDS011;74250;51.528;6.748;2024-03-25T08:18:48;15.68;;;3.63;;
84138;SDS011;74250;51.528;6.748;2024-03-25T08:21:14;14.68;;;2.92;;
84138;SDS011;74250;51.528;6.748;2024-03-25T08:23:40;15.23;;;2.50;;
84138;SDS011;74250;51.528;6.748;2024-03-25T08:26:06;13.32;;;4.68;;
84138;SDS011;74250;51.528;6.748;2024-03-25T08:28:31;10.73;;;2.75;;
84138;SDS011;74250;51.528;6.748;2024-03-25T08:30:57;8.30;;;2.40;;
84138;SDS011;74250;51.528;6.748;2024-03-25T08:33:22;16.77;;;2.50;;
84138;SDS011;74250;51.528;6.748;2024-03-25T08:35:47;12.43;;;2.80;;
84138;SDS011;74250;51.528;6.748;2024-03-25T08:38:13;13.23;;;3.72;;
84138;SDS011;74250;51.528;6.748;2024-03-25T08:40:38;14.45;;;3.15;;
84138;SDS011;74250;51.528;6.748;2024-03-25T08:43:05;17.15;;;3.83;;
84138;SDS011;74250;51.528;6.748;2024-03-25T08:45:30;9.38;;;2.20;;
84138;SDS011;74250;51.528;6.748;2024-03-25T08:47:56;8.85;;;1.50;;
84138;SDS011;74250;51.528;6.748;2024-03-25T08:50:21;9.65;;;2.60;;
84138;SDS011;74250;51.528;6.748;2024-03-25T08:52:46;10.10;;;1.02;;
84138;SDS011;74250;51.528;6.748;2024-03-25T08:55:12;10.40;;;1.58;;
84138;SDS011;74250;51.528;6.748;2024-03-25T08:57:37;6.97;;;2.25;;
84138;SDS011;74250;51.528;6.748;2024-03-25T09:00:02;14.73;;;1.83;;
84138;SDS011;74250;51.528;6.748;2024-03-25T09:02:29;6.78;;;0.77;;
84138;SDS011;74250;51.528;6.748;2024-03-25T09:04:55;7.32;;;1.58;;
84138;SDS011;74250;51.528;6.748;2024-03-25T09:07:21;6.25;;;1.02;;
84138;SDS011;74250;51.528;6.748;2024-03-25T09:09:46;8.98;;;2.20;;
84138;SDS011;74250;51.528;6.748;2024-03-25T09:12:30;16.30;;;2.60;;
84138;SDS011;74250;51.528;6.748;2024-03-25T09:14:56;10.85;;;1.77;;
84138;SDS011;74250;51.528;6.748;2024-03-25T09:17:21;11.68;;;1.98;;
84138;SDS011;74250;51.528;6.748;2024-03-25T09:19:49;8.90;;;0.75;;
84138;SDS011;74250;51.528;6.748;2024-03-25T09:22:15;10.50;;;1.67;;
84138;SDS011;74250;51.528;6.748;2024-03-25T09:24:41;12.45;;;0.88;;
84138;SDS011;74250;51.528;6.748;2024-03-25T09:27:06;8.82;;;2.05;;
84138;SDS011;74250;51.528;6.748;2024-03-25T09:29:31;13.65;;;1.20;;
84138;SDS011;74250;51.528;6.748;2024-03-25T09:31:56;7.38;;;0.95;;
84138;SDS011;74250;51.528;6.748;2024-03-25T09:34:22;10.98;;;1.08;;
84138;SDS011;74250;51.528;6.748;2024-03-25T09:36:47;10.20;;;1.23;;
84138;SDS011;74250;51.528;6.748;2024-03-25T09:39:13;10.02;;;1.40;;
84138;SDS011;74250;51.528;6.748;2024-03-25T09:41:38;11.23;;;2.30;;
84138;SDS011;74250;51.528;6.748;2024-03-25T09:44:08;7.57;;;1.63;;
84138;SDS011;74250;51.528;6.748;2024-03-25T09:46:34;7.15;;;1.27;;
84138;SDS011;74250;51.528;6.748;2024-03-25T09:49:01;7.13;;;1.05;;
84138;SDS011;74250;51.528;6.748;2024-03-25T09:51:30;7.38;;;0.50;;
84138;SDS011;74250;51.528;6.748;2024-03-25T09:53:56;6.03;;;0.70;;
84138;SDS011;74250;51.528;6.748;2024-03-25T09:56:22;13.45;;;1.35;;
84138;SDS011;74250;51.528;6.748;2024-03-25T09:58:47;10.27;;;1.08;;
84138;SDS011;74250;51.528;6.748;2024-03-25T10:01:13;6.55;;;0.70;;
84138;SDS011;74250;51.528;6.748;2024-03-25T10:03:39;5.55;;;0.73;;
84138;SDS011;74250;51.528;6.748;2024-03-25T10:06:05;5.55;;;0.82;;
84138;SDS011;74250;51.528;6.748;2024-03-25T10:08:31;7.07;;;2.88;;
84138;SDS011;74250;51.528;6.748;2024-03-25T10:10:56;7.78;;;1.75;;
84138;SDS011;74250;51.528;6.748;2024-03-25T10:13:22;8.15;;;0.95;;
84138;SDS011;74250;51.528;6.748;2024-03-25T10:15:48;6.82;;;1.25;;
84138;SDS011;74250;51.528;6.748;2024-03-25T10:18:13;8.10;;;1.13;;
84138;SDS011;74250;51.528;6.748;2024-03-25T10:20:47;15.00;;;2.78;;
84138;SDS011;74250;51.528;6.748;2024-03-25T10:23:15;7.20;;;0.88;;
84138;SDS011;74250;51.528;6.748;2024-03-25T10:25:40;8.43;;;2.80;;
84138;SDS011;74250;51.528;6.748;2024-03-25T10:28:05;14.13;;;4.55;;
84138;SDS011;74250;51.528;6.748;2024-03-25T10:30:32;9.77;;;1.30;;
84138;SDS011;74250;51.528;6.748;2024-03-25T10:33:01;10.15;;;3.80;;
84138;SDS011;74250;51.528;6.748;2024-03-25T10:35:27;10.50;;;3.17;;
84138;SDS011;74250;51.528;6.748;2024-03-25T10:37:58;5.85;;;1.42;;
84138;SDS011;74250;51.528;6.748;2024-03-25T10:40:28;5.80;;;0.93;;
84138;SDS011;74250;51.528;6.748;2024-03-25T10:42:56;9.65;;;1.55;;
84138;SDS011;74250;51.528;6.748;2024-03-25T10:45:31;8.60;;;1.67;;
84138;SDS011;74250;51.528;6.748;2024-03-25T10:47:57;6.70;;;1.02;;
84138;SDS011;74250;51.528;6.748;2024-03-25T10:50:24;3.65;;;0.88;;
84138;SDS011;74250;51.528;6.748;2024-03-25T10:52:52;7.90;;;0.55;;
84138;SDS011;74250;51.528;6.748;2024-03-25T10:55:21;5.45;;;0.70;;
84138;SDS011;74250;51.528;6.748;2024-03-25T10:57:48;7.38;;;0.98;;
84138;SDS011;74250;51.528;6.748;2024-03-25T11:00:14;7.55;;;0.68;;
84138;SDS011;74250;51.528;6.748;2024-03-25T11:05:06;6.70;;;0.75;;
84138;SDS011;74250;51.528;6.748;2024-03-25T11:07:32;7.95;;;1.00;;
84138;SDS011;74250;51.528;6.748;2024-03-25T11:10:04;7.03;;;1.35;;
84138;SDS011;74250;51.528;6.748;2024-03-25T11:12:34;10.63;;;2.13;;
84138;SDS011;74250;51.528;6.748;2024-03-25T11:15:03;8.55;;;1.80;;
84138;SDS011;74250;51.528;6.748;2024-03-25T11:17:29;12.02;;;1.70;;
84138;SDS011;74250;51.528;6.748;2024-03-25T11:20:05;8.27;;;1.60;;
84138;SDS011;74250;51.528;6.748;2024-03-25T11:22:35;36.10;;;14.80;;
84138;SDS011;74250;51.528;6.748;2024-03-25T11:25:08;49.33;;;21.63;;
84138;SDS011;74250;51.528;6.748;2024-03-25T11:27:36;10.48;;;2.38;;
84138;SDS011;74250;51.528;6.748;2024-03-25T11:30:05;5.80;;;1.40;;
84138;SDS011;74250;51.528;6.748;2024-03-25T11:32:40;7.22;;;1.38;;
84138;SDS011;74250;51.528;6.748;2024-03-25T11:35:17;6.45;;;1.13;;
84138;SDS011;74250;51.528;6.748;2024-03-25T11:38:02;9.55;;;1.55;;
84138;SDS011;74250;51.528;6.748;2024-03-25T11:40:28;9.32;;;1.40;;
84138;SDS011;74250;51.528;6.748;2024-03-25T11:42:53;9.13;;;1.30;;
84138;SDS011;74250;51.528;6.748;2024-03-25T11:45:19;5.70;;;1.25;;
84138;SDS011;74250;51.528;6.748;2024-03-25T11:50:12;8.15;;;1.90;;
84138;SDS011;74250;51.528;6.748;2024-03-25T11:52:41;7.47;;;1.02;;
84138;SDS011;74250;51.528;6.748;2024-03-25T11:55:07;7.47;;;1.13;;
84138;SDS011;74250;51.528;6.748;2024-03-25T12:00:05;7.25;;;1.27;;
84138;SDS011;74250;51.528;6.748;2024-03-25T12:02:31;4.72;;;1.25;;
84138;SDS011;74250;51.528;6.748;2024-03-25T12:04:57;7.22;;;0.90;;
84138;SDS011;74250;51.528;6.748;2024-03-25T12:07:22;3.35;;;0.98;;
84138;SDS011;74250;51.528;6.748;2024-03-25T12:09:48;5.80;;;1.38;;
84138;SDS011;74250;51.528;6.748;2024-03-25T12:12:32;12.98;;;2.88;;
84138;SDS011;74250;51.528;6.748;2024-03-25T12:14:59;7.60;;;1.33;;
84138;SDS011;74250;51.528;6.748;2024-03-25T12:17:28;7.85;;;1.75;;
84138;SDS011;74250;51.528;6.748;2024-03-25T12:22:31;15.35;;;1.70;;
84138;SDS011;74250;51.528;6.748;2024-03-25T12:24:59;11.07;;;2.20;;
84138;SDS011;74250;51.528;6.748;2024-03-25T12:27:28;13.18;;;2.83;;
84138;SDS011;74250;51.528;6.748;2024-03-25T12:30:00;6.57;;;2.40;;
84138;SDS011;74250;51.528;6.748;2024-03-25T12:32:45;9.90;;;5.72;;
84138;SDS011;74250;51.528;6.748;2024-03-25T12:35:11;12.98;;;3.22;;
84138;SDS011;74250;51.528;6.748;2024-03-25T12:37:38;7.22;;;2.28;;
84138;SDS011;74250;51.528;6.748;2024-03-25T12:40:05;8.50;;;2.22;;
84138;SDS011;74250;51.528;6.748;2024-03-25T12:42:31;10.30;;;4.25;;
84138;SDS011;74250;51.528;6.748;2024-03-25T12:44:57;8.00;;;2.58;;
84138;SDS011;74250;51.528;6.748;2024-03-25T12:47:22;8.13;;;2.47;;
84138;SDS011;74250;51.528;6.748;2024-03-25T12:49:48;7.88;;;2.58;;
84138;SDS011;74250;51.528;6.748;2024-03-25T12:52:13;7.68;;;3.40;;
84138;SDS011;74250;51.528;6.748;2024-03-25T12:54:38;8.95;;;3.25;;
84138;SDS011;74250;51.528;6.748;2024-03-25T12:57:05;9.93;;;3.13;;
84138;SDS011;74250;51.528;6.748;2024-03-25T12:59:30;8.68;;;3.38;;
84138;SDS011;74250;51.528;6.748;2024-03-25T13:01:55;8.50;;;2.58;;
84138;SDS011;74250;51.528;6.748;2024-03-25T13:04:21;8.50;;;3.38;;
84138;SDS011;74250;51.528;6.748;2024-03-25T13:06:46;9.55;;;4.03;;
84138;SDS011;74250;51.528;6.748;2024-03-25T13:09:11;7.68;;;3.75;;
84138;SDS011;74250;51.528;6.748;2024-03-25T13:11:37;15.55;;;8.15;;
84138;SDS011;74250;51.528;6.748;2024-03-25T13:14:03;20.95;;;10.45;;
84138;SDS011;74250;51.528;6.748;2024-03-25T13:16:31;43.35;;;25.48;;
84138;SDS011;74250;51.528;6.748;2024-03-25T13:18:57;24.65;;;14.45;;
84138;SDS011;74250;51.528;6.748;2024-03-25T13:21:22;19.30;;;10.80;;
84138;SDS011;74250;51.528;6.748;2024-03-25T13:23:47;7.50;;;2.58;;
84138;SDS011;74250;51.528;6.748;2024-03-25T13:26:13;14.82;;;9.23;;
84138;SDS011;74250;51.528;6.748;2024-03-25T13:28:38;13.90;;;6.95;;
84138;SDS011;74250;51.528;6.748;2024-03-25T13:31:03;7.90;;;3.08;;
84138;SDS011;74250;51.528;6.748;2024-03-25T13:33:29;8.15;;;1.95;;
84138;SDS011;74250;51.528;6.748;2024-03-25T13:35:55;23.50;;;16.67;;
84138;SDS011;74250;51.528;6.748;2024-03-25T13:38:21;17.23;;;12.05;;
84138;SDS011;74250;51.528;6.748;2024-03-25T13:40:46;27.52;;;15.68;;
84138;SDS011;74250;51.528;6.748;2024-03-25T13:43:11;11.57;;;6.45;;
84138;SDS011;74250;51.528;6.748;2024-03-25T13:45:40;15.02;;;6.43;;
84138;SDS011;74250;51.528;6.748;2024-03-25T13:48:11;59.78;;;30.85;;
84138;SDS011;74250;51.528;6.748;2024-03-25T13:50:37;7.50;;;1.63;;
84138;SDS011;74250;51.528;6.748;2024-03-25T13:53:02;5.10;;;1.25;;
84138;SDS011;74250;51.528;6.748;2024-03-25T13:55:28;6.60;;;4.88;;
84138;SDS011;74250;51.528;6.748;2024-03-25T13:57:53;28.27;;;15.95;;
84138;SDS011;74250;51.528;6.748;2024-03-25T14:00:18;21.10;;;11.43;;
84138;SDS011;74250;51.528;6.748;2024-03-25T14:02:44;13.10;;;6.63;;
84138;SDS011;74250;51.528;6.748;2024-03-25T14:05:09;8.07;;;5.10;;
84138;SDS011;74250;51.528;6.748;2024-03-25T14:07:34;6.53;;;2.13;;
84138;SDS011;74250;51.528;6.748;2024-03-25T14:10:00;4.55;;;1.23;;
84138;SDS011;74250;51.528;6.748;2024-03-25T14:12:25;4.95;;;0.88;;
84138;SDS011;74250;51.528;6.748;2024-03-25T14:14:50;9.43;;;2.25;;
84138;SDS011;74250;51.528;6.748;2024-03-25T14:17:15;8.23;;;3.10;;
84138;SDS011;74250;51.528;6.748;2024-03-25T14:19:41;7.50;;;2.90;;
84138;SDS011;74250;51.528;6.748;2024-03-25T14:22:07;5.70;;;1.20;;
84138;SDS011;74250;51.528;6.748;2024-03-25T14:24:32;5.28;;;1.55;;
84138;SDS011;74250;51.528;6.748;2024-03-25T14:26:57;5.70;;;0.98;;
84138;SDS011;74250;51.528;6.748;2024-03-25T14:29:23;7.90;;;2.40;;
84138;SDS011;74250;51.528;6.748;2024-03-25T14:31:48;7.22;;;1.65;;
84138;SDS011;74250;51.528;6.748;2024-03-25T14:34:14;4.45;;;0.85;;
84138;SDS011;74250;51.528;6.748;2024-03-25T14:36:39;2.70;;;0.65;;
84138;SDS011;74250;51.528;6.748;2024-03-25T14:39:04;8.10;;;1.58;;
84138;SDS011;74250;51.528;6.748;2024-03-25T14:41:37;5.00;;;0.85;;
84138;SDS011;74250;51.528;6.748;2024-03-25T14:44:04;5.82;;;1.10;;
84138;SDS011;74250;51.528;6.748;2024-03-25T14:46:29;4.93;;;1.13;;